Terminal Aerodrome Forecast
Issued by NWS Wichita, KS

Home | Current Version | Previous Version | Text Only | Print | Product List | Glossary On
Versions: 1 2 3 4 5 6 7 8 9 10 11 12 13 14 15 16 17 18 19 20 21 22 23 24 25 26
000
FTUS43 KICT 152142 AAC
TAFICT
TAF AMD
KICT 152142Z 1522/1618 31022G32KT P6SM OVC035
     FM160000 32016G20KT P6SM OVC035
     FM160400 34015G20KT P6SM BKN025
     FM161500 35012KT P6SM SCT020 BKN035=

USA.gov is the U.S. government's official web portal to all federal, state and local government web resources and services.